createdAt,value
2022-11-26T00:00:43.102Z,36.30
2022-11-26T00:05:02.369Z,39.50
2022-11-26T00:09:08.406Z,39.80
2022-11-26T00:13:22.479Z,38.90
2022-11-26T00:17:24.606Z,39.40
2022-11-26T00:21:27.124Z,39.60
2022-11-26T00:25:42.952Z,38.70
2022-11-26T00:29:45.045Z,40.00
2022-11-26T00:33:47.657Z,37.00
2022-11-26T00:37:56.129Z,42.00
2022-11-26T00:41:58.300Z,36.70
2022-11-26T00:46:00.520Z,36.60
2022-11-26T00:50:02.838Z,39.30
2022-11-26T00:54:06.575Z,38.70
2022-11-26T00:58:24.988Z,39.70
2022-11-26T01:02:27.193Z,39.10
2022-11-26T01:06:34.441Z,39.40
2022-11-26T01:10:36.710Z,37.60
2022-11-26T01:14:38.943Z,41.90
2022-11-26T01:18:41.406Z,39.30
2022-11-26T01:22:43.528Z,37.60
2022-11-26T01:26:45.706Z,35.90
2022-11-26T01:30:47.785Z,38.00
2022-11-26T01:34:49.927Z,36.70
2022-11-26T01:38:53.863Z,35.90
2022-11-26T01:43:00.639Z,37.10
2022-11-26T01:47:20.588Z,37.70
2022-11-26T01:51:27.837Z,34.30
2022-11-26T01:55:38.297Z,35.00
2022-11-26T01:59:44.795Z,31.90
2022-11-26T02:04:05.389Z,32.20
2022-11-26T02:08:09.402Z,36.20
2022-11-26T02:12:11.690Z,34.40
2022-11-26T02:16:20.255Z,33.80
2022-11-26T02:20:48.132Z,32.40
2022-11-26T02:25:02.347Z,30.80
2022-11-26T02:29:29.457Z,31.30
2022-11-26T02:34:02.297Z,33.00
2022-11-26T02:38:09.355Z,32.10
2022-11-26T02:42:26.410Z,34.90
2022-11-26T02:46:29.107Z,31.00
2022-11-26T02:50:49.165Z,35.20
2022-11-26T02:54:53.949Z,34.40
2022-11-26T02:58:57.742Z,33.70
2022-11-26T03:03:07.869Z,33.50
2022-11-26T03:07:12.582Z,32.70
2022-11-26T03:11:14.753Z,34.80
2022-11-26T03:15:16.939Z,33.00
2022-11-26T03:19:19.115Z,34.30
2022-11-26T03:23:21.364Z,36.70
2022-11-26T03:27:23.381Z,35.40
2022-11-26T03:31:25.452Z,33.40
2022-11-26T03:35:27.598Z,34.30
2022-11-26T03:39:29.589Z,32.90
2022-11-26T03:43:31.619Z,33.00
2022-11-26T03:47:33.746Z,32.00
2022-11-26T03:51:35.895Z,31.20
2022-11-26T03:55:37.943Z,31.60
2022-11-26T03:59:39.970Z,30.20
2022-11-26T04:03:42.105Z,32.90
2022-11-26T04:07:44.243Z,29.90
2022-11-26T04:11:46.316Z,34.70
2022-11-26T04:15:48.989Z,30.40
2022-11-26T04:19:51.052Z,33.50
2022-11-26T04:23:53.109Z,28.20
2022-11-26T04:27:56.200Z,30.30
2022-11-26T04:31:58.733Z,33.30
2022-11-26T04:36:00.767Z,34.40
2022-11-26T04:40:03.518Z,29.80
2022-11-26T04:44:05.704Z,34.40
2022-11-26T04:48:07.961Z,67.00
2022-11-26T04:52:10.265Z,35.60
2022-11-26T04:56:12.324Z,32.80
2022-11-26T05:00:16.418Z,55.70
2022-11-26T05:04:19.802Z,46.00
2022-11-26T05:08:21.819Z,35.40
2022-11-26T05:12:24.001Z,35.40
2022-11-26T05:16:26.025Z,32.40
2022-11-26T05:20:28.207Z,32.30
2022-11-26T05:24:30.304Z,33.00
2022-11-26T05:28:32.351Z,34.00
2022-11-26T05:32:34.514Z,31.30
2022-11-26T05:36:36.668Z,35.20
2022-11-26T05:40:38.703Z,32.10
2022-11-26T05:44:41.169Z,34.10
2022-11-26T05:48:44.075Z,34.60
2022-11-26T05:52:47.155Z,35.40
2022-11-26T05:56:49.609Z,34.60
2022-11-26T06:00:52.352Z,31.80
2022-11-26T06:04:55.745Z,34.30
2022-11-26T06:08:58.892Z,32.60
2022-11-26T06:13:00.871Z,33.10
2022-11-26T06:17:02.895Z,34.30
2022-11-26T06:21:06.606Z,33.20
2022-11-26T06:25:11.625Z,30.70
2022-11-26T06:29:13.661Z,33.00
2022-11-26T06:33:15.916Z,31.70
2022-11-26T06:37:21.101Z,29.20
2022-11-26T06:41:23.290Z,28.70
2022-11-26T06:45:31.721Z,29.50
2022-11-26T06:49:35.379Z,29.70
2022-11-26T06:53:38.104Z,28.90
2022-11-26T06:57:40.163Z,27.80
2022-11-26T07:01:42.442Z,28.10
2022-11-26T07:05:44.606Z,30.70
2022-11-26T07:09:46.667Z,29.60
2022-11-26T07:13:48.909Z,29.90
2022-11-26T07:17:51.016Z,34.70
2022-11-26T07:21:53.823Z,42.50
2022-11-26T07:26:01.918Z,50.30
2022-11-26T07:30:05.603Z,48.10
2022-11-26T07:34:07.751Z,46.00
2022-11-26T07:38:09.936Z,49.00
2022-11-26T07:42:13.436Z,50.30
2022-11-26T07:46:19.050Z,41.70
2022-11-26T07:50:21.276Z,40.40
2022-11-26T07:54:23.467Z,43.10
2022-11-26T07:58:28.913Z,53.40
2022-11-26T08:02:31.049Z,53.40
2022-11-26T08:06:34.104Z,67.60
2022-11-26T08:10:36.762Z,71.00
2022-11-26T08:14:39.107Z,64.20
2022-11-26T08:18:41.811Z,47.40
2022-11-26T08:22:44.134Z,41.60
2022-11-26T08:26:46.583Z,88.00
2022-11-26T08:30:50.840Z,77.40
2022-11-26T08:34:52.896Z,98.80
2022-11-26T08:38:55.074Z,98.40
2022-11-26T08:42:57.478Z,73.60
2022-11-26T08:46:59.536Z,77.00
2022-11-26T08:51:11.813Z,59.10
2022-11-26T08:55:13.890Z,62.80
2022-11-26T08:59:17.010Z,51.50
2022-11-26T09:03:19.077Z,59.00
2022-11-26T09:07:21.138Z,65.70
2022-11-26T09:11:25.526Z,69.90
2022-11-26T09:15:27.687Z,84.60
2022-11-26T09:19:29.999Z,57.70
2022-11-26T09:23:32.036Z,51.90
2022-11-26T09:27:34.040Z,48.10
2022-11-26T09:31:36.098Z,39.80
2022-11-26T09:35:38.160Z,59.30
2022-11-26T09:39:40.133Z,43.80
2022-11-26T09:44:07.587Z,45.80
2022-11-26T09:48:19.033Z,44.30
2022-11-26T09:52:25.845Z,47.00
2022-11-26T09:56:28.384Z,66.80
2022-11-26T10:00:39.228Z,70.40
2022-11-26T10:04:42.104Z,85.00
2022-11-26T10:09:12.311Z,67.60
2022-11-26T10:13:20.143Z,56.20
2022-11-26T10:17:44.551Z,57.20
2022-11-26T10:22:00.043Z,54.20
2022-11-26T10:26:41.475Z,85.40
2022-11-26T10:30:45.571Z,53.90
2022-11-26T10:34:58.262Z,70.20
2022-11-26T10:39:00.441Z,57.40
2022-11-26T10:43:21.783Z,60.60
2022-11-26T10:47:31.176Z,69.30
2022-11-26T10:51:37.342Z,50.70
2022-11-26T10:55:43.270Z,47.00
2022-11-26T10:59:51.649Z,48.30
2022-11-26T11:04:11.779Z,63.80
2022-11-26T11:08:34.188Z,43.60
2022-11-26T11:12:37.937Z,69.20
2022-11-26T11:16:45.633Z,65.40
2022-11-26T11:20:55.287Z,59.50
2022-11-26T11:24:59.812Z,83.50
2022-11-26T11:29:02.272Z,64.80
2022-11-26T11:33:23.928Z,64.60
2022-11-26T11:37:27.809Z,53.90
2022-11-26T11:41:43.587Z,57.50
2022-11-26T11:46:10.878Z,62.50
2022-11-26T11:50:22.370Z,78.50
2022-11-26T11:54:56.657Z,54.30
2022-11-26T11:59:47.259Z,71.20
2022-11-26T12:04:21.685Z,64.30
2022-11-26T12:08:52.388Z,59.90
2022-11-26T12:13:01.381Z,50.80
2022-11-26T12:21:15.377Z,59.70
2022-11-26T12:25:36.679Z,63.60
2022-11-26T12:29:47.292Z,61.20
2022-11-26T12:34:02.873Z,53.90
2022-11-26T12:38:29.976Z,58.70
2022-11-26T12:42:45.420Z,53.40
2022-11-26T13:20:27.953Z,52.10
2022-11-26T13:25:08.503Z,69.60
2022-11-26T13:29:33.454Z,43.40
2022-11-26T13:34:07.586Z,42.50
2022-11-26T13:38:18.584Z,56.90
2022-11-26T13:42:38.925Z,51.80
2022-11-26T13:46:51.023Z,59.60
2022-11-26T13:51:05.230Z,68.90
2022-11-26T13:55:26.803Z,88.10
2022-11-26T13:59:30.960Z,75.70
2022-11-26T14:03:47.839Z,81.30
2022-11-26T14:07:50.569Z,70.50
2022-11-26T14:11:56.301Z,74.30
2022-11-26T14:16:00.118Z,57.10
2022-11-26T14:20:03.651Z,57.20
2022-11-26T14:24:05.955Z,57.90
2022-11-26T14:28:09.563Z,60.50
2022-11-26T14:32:17.836Z,66.20
2022-11-26T14:36:24.669Z,50.70
2022-11-26T14:40:31.702Z,77.10
2022-11-26T14:44:34.025Z,62.20
2022-11-26T14:48:42.229Z,74.50
2022-11-26T14:52:45.757Z,68.80
2022-11-26T14:56:48.438Z,43.90
2022-11-26T15:01:12.462Z,40.20
2022-11-26T15:05:17.524Z,36.40
2022-11-26T15:09:24.222Z,68.60
2022-11-26T15:13:40.156Z,50.80
2022-11-26T15:17:46.694Z,81.50
2022-11-26T15:21:48.929Z,84.80
2022-11-26T15:25:51.971Z,69.10
2022-11-26T15:29:54.616Z,60.50
2022-11-26T15:33:59.469Z,69.00
2022-11-26T15:38:07.305Z,69.60
2022-11-26T15:42:29.460Z,69.20
2022-11-26T15:46:35.338Z,87.10
2022-11-26T15:50:38.113Z,68.70
2022-11-26T15:55:11.377Z,77.00
2022-11-26T15:59:16.167Z,49.00
2022-11-26T16:03:41.583Z,75.40
2022-11-26T16:08:00.419Z,67.40
2022-11-26T16:12:04.058Z,59.40
2022-11-26T16:16:19.464Z,49.10
2022-11-26T16:20:27.633Z,66.10
2022-11-26T16:24:43.574Z,71.70
2022-11-26T16:28:49.692Z,56.80
2022-11-26T16:32:55.851Z,63.10
2022-11-26T16:37:02.182Z,60.10
2022-11-26T16:41:07.660Z,70.00
2022-11-26T16:45:12.834Z,62.30
2022-11-26T16:49:21.663Z,77.50
2022-11-26T16:54:21.733Z,63.20
2022-11-26T16:59:22.335Z,58.20
2022-11-26T17:45:17.958Z,69.60
2022-11-26T17:49:45.065Z,67.90
2022-11-26T17:53:47.862Z,60.10
2022-11-26T17:57:51.290Z,46.80
2022-11-26T18:01:53.791Z,55.00
2022-11-26T18:05:56.193Z,58.60
2022-11-26T18:09:58.495Z,50.30
2022-11-26T18:14:02.578Z,65.90
2022-11-26T18:18:04.855Z,43.80
2022-11-26T18:22:08.503Z,53.50
2022-11-26T18:26:19.667Z,53.30
2022-11-26T18:30:24.349Z,53.70
2022-11-26T18:34:34.098Z,51.00
2022-11-26T18:38:38.458Z,43.00
2022-11-26T18:42:51.949Z,48.50
2022-11-26T18:51:59.635Z,35.30
2022-11-26T18:56:25.444Z,37.50
2022-11-26T19:09:43.074Z,50.20
2022-11-26T19:14:10.511Z,53.50
2022-11-26T19:18:32.433Z,42.60
2022-11-26T19:22:39.965Z,68.10
2022-11-26T19:27:09.525Z,77.60
2022-11-26T19:34:54.765Z,56.20
2022-11-26T19:36:39.471Z,45.00
2022-11-26T19:41:01.838Z,45.50
2022-11-26T19:45:19.474Z,51.40
2022-11-26T19:49:38.177Z,45.20
2022-11-26T19:54:18.378Z,42.80
2022-11-26T19:58:24.824Z,34.50
2022-11-26T20:02:27.097Z,41.20
2022-11-26T20:06:31.416Z,37.50
2022-11-26T20:10:33.462Z,32.80
2022-11-26T20:14:35.488Z,28.30
2022-11-26T20:18:39.626Z,37.60
2022-11-26T20:22:42.705Z,32.00
2022-11-26T20:26:46.709Z,34.10
2022-11-26T20:30:49.714Z,30.50
2022-11-26T20:34:51.844Z,31.40
2022-11-26T20:38:58.141Z,28.40
2022-11-26T20:43:00.726Z,29.60
2022-11-26T20:47:02.868Z,30.50
2022-11-26T20:51:11.403Z,30.20
2022-11-26T20:55:13.599Z,37.20
2022-11-26T20:59:15.588Z,30.20
2022-11-26T21:03:17.573Z,30.10
2022-11-26T21:07:19.644Z,30.50
2022-11-26T21:11:21.884Z,36.70
2022-11-26T21:15:24.147Z,31.80
2022-11-26T21:19:26.223Z,30.50
2022-11-26T21:23:28.168Z,34.20
2022-11-26T21:27:32.187Z,32.10
2022-11-26T21:31:34.166Z,32.50
2022-11-26T21:35:36.977Z,35.10
2022-11-26T21:39:39.130Z,29.30
2022-11-26T21:43:42.935Z,33.60
2022-11-26T21:47:45.054Z,33.60
2022-11-26T21:51:47.035Z,33.00
2022-11-26T21:55:49.017Z,34.00
2022-11-26T21:59:52.267Z,32.00
2022-11-26T22:03:58.526Z,31.00
2022-11-26T22:08:00.928Z,33.40
2022-11-26T22:12:02.948Z,36.00
2022-11-26T22:16:05.950Z,31.50
2022-11-26T22:20:08.541Z,32.20
2022-11-26T22:24:16.216Z,30.60
2022-11-26T22:28:19.047Z,29.70
2022-11-26T22:32:21.242Z,35.10
2022-11-26T22:36:23.913Z,30.10
2022-11-26T22:40:26.152Z,30.20
2022-11-26T22:44:28.204Z,39.70
2022-11-26T22:48:30.220Z,34.10
2022-11-26T22:52:32.146Z,32.90
2022-11-26T22:56:37.444Z,32.80
2022-11-26T23:00:45.315Z,29.60
2022-11-26T23:04:47.447Z,35.40
2022-11-26T23:08:49.594Z,34.10
2022-11-26T23:12:51.599Z,38.50
2022-11-26T23:16:53.601Z,36.90
2022-11-26T23:21:16.354Z,32.60
2022-11-26T23:25:20.518Z,40.40
2022-11-26T23:29:22.520Z,36.20
2022-11-26T23:33:24.448Z,34.90
2022-11-26T23:37:26.383Z,40.60
2022-11-26T23:41:28.459Z,35.30
2022-11-26T23:45:30.432Z,27.70
2022-11-26T23:49:32.431Z,31.10
2022-11-26T23:53:39.500Z,22.90
2022-11-26T23:57:41.489Z,22.60
